createdAt,value
2017-09-25T00:00:49.810Z,12.40
2017-09-25T00:03:18.162Z,12.60
2017-09-25T00:05:45.741Z,12.50
2017-09-25T00:08:13.342Z,12.70
2017-09-25T00:10:40.925Z,12.70
2017-09-25T00:13:08.524Z,12.70
2017-09-25T00:15:36.111Z,12.80
2017-09-25T00:18:03.694Z,12.90
2017-09-25T00:20:31.257Z,12.90
2017-09-25T00:22:58.849Z,13.00
2017-09-25T00:25:26.422Z,13.10
2017-09-25T00:27:53.999Z,13.10
2017-09-25T00:30:22.366Z,13.30
2017-09-25T00:32:50.726Z,13.30
2017-09-25T00:35:18.334Z,13.20
2017-09-25T00:37:45.914Z,13.30
2017-09-25T00:40:13.602Z,13.30
2017-09-25T00:42:41.197Z,13.30
2017-09-25T00:45:09.561Z,13.30
2017-09-25T00:47:37.152Z,13.30
2017-09-25T00:50:05.538Z,13.20
2017-09-25T00:52:45.090Z,13.20
2017-09-25T00:55:24.595Z,13.10
2017-09-25T00:57:52.176Z,13.10
2017-09-25T01:00:32.239Z,13.10
2017-09-25T01:03:11.678Z,13.00
2017-09-25T01:05:51.060Z,13.10
2017-09-25T01:08:18.656Z,13.10
2017-09-25T01:10:46.977Z,13.20
2017-09-25T01:13:14.567Z,13.10
2017-09-25T01:15:42.166Z,13.20
2017-09-25T01:18:10.525Z,13.20
2017-09-25T01:20:38.106Z,13.20
2017-09-25T01:23:06.436Z,13.10
2017-09-25T01:25:34.005Z,13.10
2017-09-25T01:28:01.587Z,13.10
2017-09-25T01:30:29.176Z,13.00
2017-09-25T01:32:56.735Z,12.90
2017-09-25T01:35:24.527Z,12.90
2017-09-25T01:37:52.118Z,12.90
2017-09-25T01:40:19.948Z,12.90
2017-09-25T01:42:47.567Z,12.80
2017-09-25T01:45:15.121Z,12.80
2017-09-25T01:47:42.719Z,12.80
2017-09-25T01:50:10.406Z,12.80
2017-09-25T01:52:37.987Z,12.80
2017-09-25T01:55:05.574Z,12.80
2017-09-25T01:57:33.194Z,12.90
2017-09-25T02:00:00.805Z,12.90
2017-09-25T02:02:29.135Z,12.90
2017-09-25T02:04:56.719Z,12.90
2017-09-25T02:07:24.301Z,12.90
2017-09-25T02:09:51.877Z,12.90
2017-09-25T02:12:20.246Z,13.00
2017-09-25T02:14:48.866Z,12.90
2017-09-25T02:17:16.462Z,12.90
2017-09-25T02:19:44.042Z,12.90
2017-09-25T02:22:12.066Z,12.90
2017-09-25T02:24:39.658Z,12.90
2017-09-25T02:27:07.261Z,12.80
2017-09-25T02:29:35.625Z,12.80
2017-09-25T02:32:03.968Z,12.80
2017-09-25T02:34:31.580Z,12.80
2017-09-25T02:36:59.918Z,12.90
2017-09-25T02:39:27.543Z,12.80
2017-09-25T02:41:55.129Z,12.80
2017-09-25T02:44:22.705Z,12.80
2017-09-25T02:46:50.521Z,12.90
2017-09-25T02:49:18.086Z,12.90
2017-09-25T02:51:45.705Z,12.90
2017-09-25T02:54:13.312Z,12.90
2017-09-25T02:56:40.946Z,12.90
2017-09-25T02:59:09.325Z,12.90
2017-09-25T03:01:36.903Z,12.80
2017-09-25T03:04:05.253Z,12.80
2017-09-25T03:06:32.823Z,12.80
2017-09-25T03:09:01.178Z,12.80
2017-09-25T03:11:29.018Z,12.70
2017-09-25T03:13:56.611Z,12.70
2017-09-25T03:16:24.206Z,12.70
2017-09-25T03:18:52.562Z,12.60
2017-09-25T03:21:20.163Z,12.60
2017-09-25T03:23:47.729Z,12.60
2017-09-25T03:26:15.318Z,12.60
2017-09-25T03:28:42.901Z,12.60
2017-09-25T03:31:10.517Z,12.60
2017-09-25T03:33:38.165Z,12.50
2017-09-25T03:36:05.750Z,12.50
2017-09-25T03:38:33.342Z,12.50
2017-09-25T03:41:00.926Z,12.50
2017-09-25T03:43:29.269Z,12.60
2017-09-25T03:45:56.852Z,12.50
2017-09-25T03:48:24.426Z,12.50
2017-09-25T03:50:52.795Z,12.60
2017-09-25T03:53:20.350Z,12.60
2017-09-25T03:55:47.921Z,12.50
2017-09-25T03:58:16.318Z,12.60
2017-09-25T04:00:44.640Z,12.50
2017-09-25T04:03:12.222Z,12.50
2017-09-25T04:05:39.812Z,12.50
2017-09-25T04:08:08.175Z,12.50
2017-09-25T04:10:35.773Z,12.40
2017-09-25T04:13:03.362Z,12.40
2017-09-25T04:15:30.934Z,12.30
2017-09-25T04:17:58.502Z,12.30
2017-09-25T04:20:26.103Z,12.20
2017-09-25T04:22:54.433Z,12.20
2017-09-25T04:25:22.022Z,12.20
2017-09-25T04:27:49.639Z,12.10
2017-09-25T04:30:17.279Z,12.10
2017-09-25T04:32:44.835Z,12.10
2017-09-25T04:35:12.401Z,12.00
2017-09-25T04:37:40.001Z,12.00
2017-09-25T04:40:07.574Z,11.90
2017-09-25T04:42:35.270Z,12.00
2017-09-25T04:45:03.633Z,12.00
2017-09-25T04:47:31.223Z,12.00
2017-09-25T04:49:58.942Z,12.10
2017-09-25T04:52:26.527Z,12.00
2017-09-25T04:54:54.906Z,12.10
2017-09-25T04:57:22.470Z,12.00
2017-09-25T04:59:50.821Z,12.20
2017-09-25T05:02:18.411Z,12.10
2017-09-25T05:04:46.747Z,12.10
2017-09-25T05:07:14.402Z,12.20
2017-09-25T05:09:41.969Z,12.10
2017-09-25T05:12:09.558Z,12.20
2017-09-25T05:14:37.142Z,12.10
2017-09-25T05:17:05.453Z,12.10
2017-09-25T05:19:33.025Z,12.00
2017-09-25T05:22:00.632Z,12.10
2017-09-25T05:24:28.207Z,12.00
2017-09-25T05:26:56.557Z,12.00
2017-09-25T05:29:24.129Z,11.90
2017-09-25T05:31:51.714Z,11.90
2017-09-25T05:34:20.034Z,12.00
2017-09-25T05:36:47.609Z,12.00
2017-09-25T05:39:19.936Z,12.00
2017-09-25T05:41:47.520Z,12.00
2017-09-25T05:44:15.118Z,12.00
2017-09-25T05:46:46.348Z,12.00
2017-09-25T05:49:20.395Z,12.10
2017-09-25T05:51:48.030Z,12.10
2017-09-25T05:54:15.682Z,12.10
2017-09-25T05:56:43.249Z,12.10
2017-09-25T05:59:10.854Z,12.30
2017-09-25T06:01:38.439Z,12.40
2017-09-25T06:04:06.046Z,12.40
2017-09-25T06:06:33.719Z,12.40
2017-09-25T06:09:01.302Z,12.30
2017-09-25T06:11:28.878Z,12.30
2017-09-25T06:13:56.469Z,12.30
2017-09-25T06:16:24.078Z,12.20
2017-09-25T06:18:57.319Z,12.20
2017-09-25T06:21:25.729Z,12.30
2017-09-25T06:23:53.291Z,12.30
2017-09-25T06:26:20.887Z,12.30
2017-09-25T06:28:48.452Z,12.40
2017-09-25T06:31:16.258Z,12.60
2017-09-25T06:33:43.865Z,12.80
2017-09-25T06:36:11.434Z,13.10
2017-09-25T06:38:39.017Z,13.50
2017-09-25T06:41:06.597Z,13.70
2017-09-25T06:43:34.378Z,14.10
2017-09-25T06:46:01.958Z,14.30
2017-09-25T06:48:30.312Z,15.00
2017-09-25T06:50:57.887Z,15.00
2017-09-25T06:53:25.531Z,15.90
2017-09-25T06:55:53.097Z,16.60
2017-09-25T06:58:20.696Z,16.60
2017-09-25T07:00:49.146Z,16.20
2017-09-25T07:03:16.753Z,16.10
2017-09-25T07:05:44.511Z,15.90
2017-09-25T07:08:12.083Z,15.80
2017-09-25T07:10:39.649Z,15.80
2017-09-25T07:13:07.526Z,15.90
2017-09-25T07:15:35.115Z,16.10
2017-09-25T07:18:02.666Z,16.30
2017-09-25T07:20:30.607Z,16.50
2017-09-25T07:22:58.188Z,16.90
2017-09-25T07:25:25.771Z,17.60
2017-09-25T07:27:53.383Z,18.10
2017-09-25T07:30:20.978Z,18.50
2017-09-25T07:32:48.583Z,18.80
2017-09-25T07:35:16.917Z,20.00
2017-09-25T07:37:44.538Z,19.90
2017-09-25T07:40:12.123Z,20.50
2017-09-25T07:42:39.690Z,22.40
2017-09-25T07:45:07.294Z,24.20
2017-09-25T07:47:34.882Z,25.50
2017-09-25T07:50:02.501Z,26.50
2017-09-25T07:52:30.118Z,27.60
2017-09-25T07:54:57.691Z,28.40
2017-09-25T07:57:25.283Z,28.40
2017-09-25T07:59:52.867Z,28.50
2017-09-25T08:02:21.286Z,30.00
2017-09-25T08:04:48.859Z,30.00
2017-09-25T08:07:16.425Z,30.80
2017-09-25T08:09:44.027Z,31.10
2017-09-25T08:12:13.006Z,31.70
2017-09-25T08:14:40.582Z,31.70
2017-09-25T08:17:08.170Z,32.10
2017-09-25T08:19:35.779Z,32.30
2017-09-25T08:22:03.374Z,32.10
2017-09-25T08:24:31.720Z,30.90
2017-09-25T08:26:59.290Z,30.80
2017-09-25T08:29:26.886Z,30.70
2017-09-25T08:31:55.226Z,30.50
2017-09-25T08:34:22.820Z,30.50
2017-09-25T08:36:51.233Z,29.50
2017-09-25T08:39:18.813Z,29.40
2017-09-25T08:41:46.482Z,28.10
2017-09-25T08:44:14.061Z,26.50
2017-09-25T08:46:41.649Z,26.20
2017-09-25T08:49:09.976Z,24.90
2017-09-25T08:51:37.543Z,24.80
2017-09-25T08:54:05.108Z,24.10
2017-09-25T08:56:32.677Z,23.70
2017-09-25T08:59:00.262Z,23.50
2017-09-25T09:01:27.819Z,23.20
2017-09-25T09:03:56.188Z,24.90
2017-09-25T09:06:23.758Z,24.90
2017-09-25T09:08:52.092Z,24.60
2017-09-25T09:11:19.691Z,24.60
2017-09-25T09:13:47.255Z,23.70
2017-09-25T09:16:15.066Z,23.10
2017-09-25T09:18:42.638Z,22.60
2017-09-25T09:21:10.236Z,22.20
2017-09-25T09:23:37.830Z,22.20
2017-09-25T09:26:05.426Z,21.90
2017-09-25T09:28:33.014Z,21.40
2017-09-25T09:31:00.599Z,21.20
2017-09-25T09:33:30.745Z,21.10
2017-09-25T09:35:58.326Z,21.10
2017-09-25T09:38:25.921Z,21.10
2017-09-25T09:40:53.492Z,21.10
2017-09-25T09:43:21.144Z,21.20
2017-09-25T09:45:48.710Z,21.70
2017-09-25T09:48:16.449Z,22.40
2017-09-25T09:50:44.050Z,22.60
2017-09-25T09:53:14.030Z,22.80
2017-09-25T09:55:41.623Z,22.70
2017-09-25T09:58:09.226Z,22.80
2017-09-25T10:00:36.829Z,23.20
2017-09-25T10:03:04.413Z,22.70
2017-09-25T10:05:32.767Z,23.00
2017-09-25T10:08:01.090Z,23.00
2017-09-25T10:10:28.658Z,23.50
2017-09-25T10:12:56.222Z,23.60
2017-09-25T10:15:23.817Z,23.30
2017-09-25T10:17:51.417Z,23.20
2017-09-25T10:20:19.792Z,22.30
2017-09-25T10:22:48.154Z,22.90
2017-09-25T10:25:15.764Z,22.90
2017-09-25T10:27:43.346Z,23.20
2017-09-25T10:30:10.954Z,23.40
2017-09-25T10:32:38.537Z,22.70
2017-09-25T10:35:06.888Z,22.10
2017-09-25T10:37:34.482Z,22.10
2017-09-25T10:40:02.085Z,22.00
2017-09-25T10:42:29.849Z,21.80
2017-09-25T10:44:57.408Z,21.60
2017-09-25T10:47:25.012Z,21.10
2017-09-25T10:49:53.346Z,21.00
2017-09-25T10:52:20.956Z,21.00
2017-09-25T10:54:49.294Z,20.80
2017-09-25T10:57:16.985Z,20.80
2017-09-25T10:59:44.586Z,20.70
2017-09-25T11:02:12.193Z,20.60
2017-09-25T11:04:39.768Z,20.30
2017-09-25T11:07:07.345Z,20.20
2017-09-25T11:09:35.702Z,20.20
2017-09-25T11:12:03.314Z,20.20
2017-09-25T11:14:30.930Z,20.30
2017-09-25T11:16:58.518Z,20.20
2017-09-25T11:19:26.882Z,20.20
2017-09-25T11:21:55.318Z,20.20
2017-09-25T11:24:22.931Z,20.20
2017-09-25T11:26:51.275Z,20.90
2017-09-25T11:29:18.863Z,21.00
2017-09-25T11:31:46.519Z,21.30
2017-09-25T11:34:14.110Z,21.70
2017-09-25T11:36:41.700Z,21.80
2017-09-25T11:39:11.022Z,21.50
2017-09-25T11:41:43.483Z,21.50
2017-09-25T11:44:12.194Z,21.40
2017-09-25T11:46:42.784Z,21.90
2017-09-25T11:49:10.346Z,21.90
2017-09-25T11:51:37.954Z,22.00
2017-09-25T11:54:05.530Z,21.70
2017-09-25T11:56:34.522Z,21.50
2017-09-25T11:59:02.916Z,21.30
2017-09-25T12:01:31.246Z,21.10
2017-09-25T12:03:59.233Z,21.00
2017-09-25T12:06:26.806Z,20.90
2017-09-25T12:08:54.381Z,20.70
2017-09-25T12:11:21.987Z,20.40
2017-09-25T12:13:49.582Z,20.20
2017-09-25T12:16:17.154Z,20.20
2017-09-25T12:18:45.506Z,19.90
2017-09-25T12:21:13.218Z,19.90
2017-09-25T12:23:40.811Z,19.80
2017-09-25T12:26:08.419Z,19.90
2017-09-25T12:28:35.990Z,20.00
2017-09-25T12:31:04.343Z,19.60
2017-09-25T12:33:31.931Z,19.50
2017-09-25T12:36:00.255Z,19.50
2017-09-25T12:38:27.871Z,19.50
2017-09-25T12:40:56.258Z,20.00
2017-09-25T12:43:24.597Z,20.10
2017-09-25T12:45:52.184Z,20.10
2017-09-25T12:48:20.537Z,20.30
2017-09-25T12:50:48.155Z,20.30
2017-09-25T12:53:15.991Z,20.50
2017-09-25T12:55:43.548Z,20.90
2017-09-25T12:58:11.143Z,21.00
2017-09-25T13:00:41.694Z,21.00
2017-09-25T13:03:10.050Z,20.60
2017-09-25T13:05:37.667Z,20.50
2017-09-25T13:08:05.268Z,20.30
2017-09-25T13:10:33.618Z,20.00
2017-09-25T13:13:04.193Z,20.00
2017-09-25T13:15:31.809Z,20.00
2017-09-25T13:17:59.404Z,20.00
2017-09-25T13:20:26.979Z,20.00
2017-09-25T13:22:54.595Z,20.00
2017-09-25T13:25:22.177Z,20.20
2017-09-25T13:27:50.530Z,20.10
2017-09-25T13:30:18.144Z,20.10
2017-09-25T13:32:46.289Z,20.00
2017-09-25T13:35:14.636Z,19.90
2017-09-25T13:37:42.260Z,19.90
2017-09-25T13:40:09.845Z,19.90
2017-09-25T13:42:37.472Z,19.80
2017-09-25T13:45:05.087Z,19.90
2017-09-25T13:47:32.685Z,20.00
2017-09-25T13:50:01.046Z,19.90
2017-09-25T13:52:28.706Z,19.90
2017-09-25T13:54:56.298Z,19.90
2017-09-25T13:57:23.893Z,20.00
2017-09-25T14:02:26.079Z,19.80
2017-09-25T14:04:53.666Z,19.80
2017-09-25T14:07:21.310Z,19.70
2017-09-25T14:09:48.889Z,19.50
2017-09-25T14:12:16.482Z,19.40
2017-09-25T14:14:44.832Z,19.20
2017-09-25T14:17:12.421Z,19.20
2017-09-25T14:19:41.735Z,18.90
2017-09-25T14:22:09.435Z,18.90
2017-09-25T14:24:37.023Z,19.00
2017-09-25T14:27:04.630Z,19.10
2017-09-25T14:29:32.198Z,19.10
2017-09-25T14:31:59.826Z,19.20
2017-09-25T14:34:28.176Z,19.30
2017-09-25T14:36:55.753Z,19.20
2017-09-25T14:39:23.628Z,19.40
2017-09-25T14:41:51.963Z,19.40
2017-09-25T14:44:19.554Z,19.40
2017-09-25T14:46:47.141Z,19.40
2017-09-25T14:49:15.500Z,19.60
2017-09-25T14:51:43.092Z,19.50
2017-09-25T14:54:10.675Z,19.50
2017-09-25T14:56:38.320Z,19.50
2017-09-25T14:59:05.911Z,19.50
2017-09-25T15:01:33.531Z,19.40
2017-09-25T15:04:01.125Z,19.30
2017-09-25T15:06:28.707Z,19.30
2017-09-25T15:08:56.294Z,19.20
2017-09-25T15:11:24.653Z,19.40
2017-09-25T15:13:52.227Z,19.30
2017-09-25T15:16:19.817Z,19.20
2017-09-25T15:18:47.702Z,19.20
2017-09-25T15:21:15.287Z,19.20
2017-09-25T15:23:42.977Z,19.00
2017-09-25T15:26:10.542Z,18.90
2017-09-25T15:28:38.129Z,18.80
2017-09-25T15:31:05.706Z,18.70
2017-09-25T15:33:33.293Z,18.70
2017-09-25T15:36:00.869Z,18.60
2017-09-25T15:38:28.434Z,18.70
2017-09-25T15:40:56.025Z,18.60
2017-09-25T15:43:24.392Z,18.70
2017-09-25T15:45:52.754Z,18.70
2017-09-25T15:48:20.346Z,18.70
2017-09-25T15:50:48.769Z,18.70
2017-09-25T15:53:16.346Z,18.70
2017-09-25T15:55:43.962Z,18.60
2017-09-25T15:58:11.578Z,18.60
2017-09-25T16:00:39.174Z,18.60
2017-09-25T16:03:07.554Z,18.50
2017-09-25T16:05:35.915Z,18.40
2017-09-25T16:08:03.540Z,18.40
2017-09-25T16:10:31.119Z,18.30
2017-09-25T16:12:58.718Z,18.30
2017-09-25T16:15:27.049Z,18.20
2017-09-25T16:17:54.650Z,18.20
2017-09-25T16:20:22.999Z,18.10
2017-09-25T16:22:50.585Z,18.10
2017-09-25T16:25:18.203Z,17.90
2017-09-25T16:27:45.770Z,17.80
2017-09-25T16:30:13.422Z,17.70
2017-09-25T16:32:41.062Z,17.50
2017-09-25T16:35:08.662Z,17.40
2017-09-25T16:37:36.259Z,17.30
2017-09-25T16:40:04.604Z,17.10
2017-09-25T16:42:32.202Z,17.10
2017-09-25T16:45:00.575Z,16.90
2017-09-25T16:47:28.159Z,16.90
2017-09-25T16:49:55.811Z,16.90
2017-09-25T16:52:24.978Z,16.70
2017-09-25T16:54:52.626Z,16.70
2017-09-25T16:57:20.217Z,16.60
2017-09-25T16:59:48.598Z,16.40
2017-09-25T17:02:16.946Z,16.40
2017-09-25T17:04:44.520Z,16.40
2017-09-25T17:07:12.132Z,16.30
2017-09-25T17:09:39.732Z,16.20
2017-09-25T17:12:07.325Z,16.10
2017-09-25T17:14:35.695Z,15.90
2017-09-25T17:17:03.307Z,15.90
2017-09-25T17:19:31.969Z,15.80
2017-09-25T17:22:00.383Z,15.70
2017-09-25T17:24:27.954Z,15.70
2017-09-25T17:26:55.550Z,15.70
2017-09-25T17:29:23.161Z,15.70
2017-09-25T17:31:50.734Z,15.60
2017-09-25T17:34:18.312Z,15.50
2017-09-25T17:36:45.900Z,15.50
2017-09-25T17:39:13.516Z,15.40
2017-09-25T17:41:41.153Z,15.30
2017-09-25T17:44:08.924Z,15.30
2017-09-25T17:46:40.419Z,15.20
2017-09-25T17:49:10.956Z,15.10
2017-09-25T17:51:41.781Z,15.00
2017-09-25T17:54:09.648Z,15.00
2017-09-25T17:56:37.263Z,14.90
2017-09-25T17:59:07.489Z,14.90
2017-09-25T18:01:35.823Z,14.80
2017-09-25T18:04:04.423Z,14.80
2017-09-25T18:06:32.002Z,14.80
2017-09-25T18:09:00.390Z,14.70
2017-09-25T18:11:27.986Z,14.70
2017-09-25T18:13:55.580Z,14.70
2017-09-25T18:16:23.196Z,14.60
2017-09-25T18:18:50.774Z,14.60
2017-09-25T18:21:18.365Z,14.60
2017-09-25T18:23:46.006Z,14.50
2017-09-25T18:26:13.582Z,14.60
2017-09-25T18:28:41.174Z,14.50
2017-09-25T18:31:09.530Z,14.50
2017-09-25T18:33:37.982Z,14.50
2017-09-25T18:36:05.827Z,14.50
2017-09-25T18:38:33.414Z,14.50
2017-09-25T18:41:01.383Z,14.50
2017-09-25T18:43:33.687Z,14.50
2017-09-25T18:46:01.921Z,14.40
2017-09-25T18:48:32.758Z,14.40
2017-09-25T18:51:01.346Z,14.40
2017-09-25T18:53:32.770Z,14.30
2017-09-25T18:56:01.740Z,14.30
2017-09-25T18:58:29.386Z,14.20
2017-09-25T19:00:57.093Z,14.20
2017-09-25T19:03:24.993Z,14.20
2017-09-25T19:05:58.147Z,14.00
2017-09-25T19:08:27.183Z,14.00
2017-09-25T19:10:58.509Z,13.90
2017-09-25T19:13:30.954Z,13.90
2017-09-25T19:16:00.621Z,13.90
2017-09-25T19:18:29.955Z,13.90
2017-09-25T19:20:58.921Z,13.90
2017-09-25T19:23:26.848Z,13.80
2017-09-25T19:26:02.401Z,13.70
2017-09-25T19:28:30.105Z,13.70
2017-09-25T19:30:57.710Z,13.70
2017-09-25T19:33:33.930Z,13.70
2017-09-25T19:36:04.794Z,13.70
2017-09-25T19:38:32.480Z,13.60
2017-09-25T19:41:00.137Z,13.60
2017-09-25T19:43:28.519Z,13.60
2017-09-25T19:45:56.137Z,13.60
2017-09-25T19:48:33.006Z,13.60
2017-09-25T19:51:09.708Z,13.50
2017-09-25T19:53:37.318Z,13.50
2017-09-25T19:56:07.386Z,13.50
2017-09-25T19:58:49.871Z,13.40
2017-09-25T20:01:23.651Z,13.40
2017-09-25T20:03:51.314Z,13.40
2017-09-25T20:06:18.928Z,13.40
2017-09-25T20:08:46.489Z,13.50
2017-09-25T20:11:14.114Z,13.40
2017-09-25T20:13:42.283Z,13.40
2017-09-25T20:16:16.861Z,13.40
2017-09-25T20:18:45.196Z,13.40
2017-09-25T20:21:12.838Z,13.40
2017-09-25T20:23:40.445Z,13.50
2017-09-25T20:26:09.037Z,13.50
2017-09-25T20:28:36.638Z,13.50
2017-09-25T20:31:04.245Z,13.50
2017-09-25T20:33:31.939Z,13.60
2017-09-25T20:36:01.104Z,13.60
2017-09-25T20:38:33.978Z,13.60
2017-09-25T20:41:08.110Z,13.60
2017-09-25T20:43:37.359Z,13.60
2017-09-25T20:46:04.954Z,13.60
2017-09-25T20:48:32.523Z,13.60
2017-09-25T20:51:00.113Z,13.60
2017-09-25T20:53:28.456Z,13.60
2017-09-25T20:55:56.062Z,13.60
2017-09-25T20:58:24.666Z,13.60
2017-09-25T21:00:52.293Z,13.60
2017-09-25T21:03:20.633Z,13.60
2017-09-25T21:05:48.218Z,13.60
2017-09-25T21:08:15.811Z,13.60
2017-09-25T21:10:44.191Z,13.60
2017-09-25T21:13:12.570Z,13.60
2017-09-25T21:15:40.904Z,13.60
2017-09-25T21:18:08.473Z,13.50
2017-09-25T21:20:36.270Z,13.50
2017-09-25T21:23:04.626Z,13.50
2017-09-25T21:25:32.661Z,13.50
2017-09-25T21:28:00.221Z,13.50
2017-09-25T21:30:27.799Z,13.50
2017-09-25T21:32:55.435Z,13.50
2017-09-25T21:35:23.042Z,13.50
2017-09-25T21:37:50.631Z,13.50
2017-09-25T21:40:18.967Z,13.40
2017-09-25T21:42:46.600Z,13.40
2017-09-25T21:45:14.170Z,13.40
2017-09-25T21:47:41.791Z,13.50
2017-09-25T21:50:10.122Z,13.40
2017-09-25T21:52:37.728Z,13.40
2017-09-25T21:55:06.087Z,13.40
2017-09-25T21:57:33.696Z,13.40
2017-09-25T22:00:01.273Z,13.30
2017-09-25T22:02:28.920Z,13.30
2017-09-25T22:04:56.493Z,13.20
2017-09-25T22:07:24.143Z,13.20
2017-09-25T22:09:51.733Z,13.10
2017-09-25T22:12:19.323Z,13.10
2017-09-25T22:14:46.946Z,13.00
2017-09-25T22:17:14.534Z,13.00
2017-09-25T22:19:42.918Z,13.00
2017-09-25T22:22:10.503Z,12.90
2017-09-25T22:24:38.870Z,12.90
2017-09-25T22:27:06.465Z,12.90
2017-09-25T22:29:34.063Z,13.00
2017-09-25T22:32:01.642Z,13.00
2017-09-25T22:34:29.214Z,13.00
2017-09-25T22:36:56.829Z,13.00
2017-09-25T22:39:24.421Z,13.00
2017-09-25T22:41:52.089Z,13.00
2017-09-25T22:44:29.564Z,13.00
2017-09-25T22:46:57.152Z,13.00
2017-09-25T22:49:24.759Z,13.00
2017-09-25T22:51:52.330Z,12.90
2017-09-25T22:54:20.014Z,12.90
2017-09-25T22:56:47.857Z,12.90
2017-09-25T22:59:15.436Z,12.90
2017-09-25T23:01:43.026Z,12.90
2017-09-25T23:04:13.057Z,12.90
2017-09-25T23:06:41.414Z,12.90
2017-09-25T23:09:08.974Z,12.90
2017-09-25T23:14:34.455Z,12.90
2017-09-25T23:17:02.047Z,12.80
2017-09-25T23:19:29.666Z,12.80
2017-09-25T23:21:57.993Z,12.70
2017-09-25T23:24:25.594Z,12.70
2017-09-25T23:26:53.933Z,12.70
2017-09-25T23:29:21.513Z,12.70
2017-09-25T23:31:49.103Z,12.70
2017-09-25T23:34:17.469Z,12.80
2017-09-25T23:36:45.045Z,12.80
2017-09-25T23:39:13.402Z,12.90
2017-09-25T23:41:41.019Z,12.80
2017-09-25T23:44:08.597Z,12.90
2017-09-25T23:46:36.274Z,12.90
2017-09-25T23:49:03.855Z,12.90
2017-09-25T23:51:31.434Z,12.90
2017-09-25T23:53:59.029Z,13.00
2017-09-25T23:56:26.799Z,13.00
2017-09-25T23:58:54.387Z,13.00
